Booneville, Arkansas
Current Conditions -  °F | °C
As of 1:53 PM on Thursday 18 Dec 2014 (Local Time) from KFSM Reporting Station
Overcast Overcast  
Wind Chill: 37°   Ceiling: 800
Heat Index: 41°   Visibility: 10mi
Dew Point: 37°   Wind: 6mph
Humidity: 86%   Direction: 60°ENE
Pressure: 30.17"   Gusts: NA
Location:  35.14°N, 93.92°W
Report Text: KFSM 181953Z 06005KT 10SM OVC008 05/03 A3017 RMK AO2 SLP220 T00500028
Loading
Personal Weather Stations






























Interactive Weather Map New forecast layout! Learn more

10-Day Weather Forecast

Advertisements
Track Severe Weather on mobile